Tropical Cyclones
[Index]
Main Index Home Page Stock Weather Photos Extreme Storms Discussion Storm News and Storm Chasing Reports Tropical Cyclones / Hurricanes / Typhoons Weather Data and Links Wild Fires / Bushfires Weather Observation Techniques Weather Picture Catalogue Tornado Pictures and Reports Stock Video Footage and DVDs for sale
Season 2011-2012 Tropical Cyclone 201202 Track Map
Season 2011-2012 Summaries (Operational Data): [AU] [SIO] [SPAC] [SH]
<<- Previous TC | 2011-2012 Season | Next TC ->>

click for intensity scale information  Lat/long Grid: Show Hide

 Date Labels: Show Hide

Operational Tropical Cyclone Data : JTWC Advisories

Name: 201202
Number: 1202

02 Dec 2011 12:00 UTC to 11 Dec 2011 00:00 UTC

    date/time    lat    long     hPa   cat  kts
2011-12-02 12   12.0    69.8    1010         15          
2011-12-02 18   12.3    69.6    1010         15          
2011-12-03 00   12.4    69.5    1004         25          
2011-12-03 06   12.6    69.5    1000         30          
2011-12-03 12   12.8    69.5    1000         30          
2011-12-03 18   12.9    69.7    1000         30          
2011-12-04 00   13.5    70.3    1000         30          
2011-12-04 06   14.3    70.4    1003         25          
2011-12-04 12   14.7    70.6    1004         25          
2011-12-04 18   14.9    70.5    1007         20          
2011-12-05 00   15.2    70.6    1007         20          
2011-12-05 06   15.9    70.3    1007         20          
2011-12-05 12   16.4    69.9    1007         20          
2011-12-05 18   16.7    69.7    1004         25          
2011-12-06 00   17.0    69.4    1000         30          
2011-12-06 06   17.1    69.1     996    1    35          
2011-12-06 12   17.1    68.7     996    1    35          
2011-12-06 18   16.6    68.3    1000         30          
2011-12-07 00   16.3    67.8    1000         30          
2011-12-07 06   16.2    67.5    1000         30          
2011-12-07 12   16.0    67.4    1000         30          
2011-12-07 18   16.4    67.3    1004         25          
2011-12-08 00   16.8    66.7    1004         25          
2011-12-08 06   16.8    66.0    1004         25          
2011-12-08 12   16.1    66.4    1004         25          
2011-12-08 18   16.5    66.7    1004         25          
2011-12-09 00   16.5    66.1    1004         25          
2011-12-09 06   16.4    65.7    1007         20          
2011-12-09 12   16.5    65.1    1007         20          
2011-12-09 18   16.6    64.4    1007         20          
2011-12-10 00   16.6    63.6    1004         25          
2011-12-10 06   16.4    62.8    1004         25          
2011-12-10 12   16.4    62.1    1004         25          
2011-12-10 18   16.2    61.5    1004         25          
2011-12-11 00   16.2    61.2    1004         25          
Winds are 10-min average.

Tropical cyclone tracks developed by Michael Bath using operational warnings and advisories and Google Maps.


[Australian Severe Weather index] [Copyright Notice] [Email Contacts] [Search This Site] [Privacy Policy]
Document: tropical_cyclone_201202.htm Updated: 2 May 2017